Eurika — LYRZ — position and weather

sailwx.info

Track history (hours):
 
Tides and Currents Weather Stations Pressure Air Temp Water Temp Dewpoint Dewpoint Depression Visibility Wind Speed Wind Dir Waves Ship Positions

Eurika

Last reported at 2015-Jul-29 09:33 UTC. Time now 2015-Jul-29 20:05 UTC.
Position N 40°56' E 009°32'.

Length 79 m.

MMSI: 277335000.

Date/timePositionNaut miles runAvg speedWind from/ knotsBaromVisibWave heightAir tempDewpointWater temp
2015-Jul-29 09:33N 40°56' E 009°32'0 0.0
2015-Jul-29 08:34N 40°56' E 009°32'  
2015-Jul-26 14:26N 42°55' E 005°39'7 8.0
2015-Jul-26 13:33N 42°59' E 005°31'9 8.1
2015-Jul-26 12:26N 43°04' E 005°20'7 8.2
2015-Jul-26 11:33N 43°08' E 005°12'8 8.0
2015-Jul-26 10:33N 43°14' E 005°05'8 8.1
2015-Jul-26 09:33N 43°20' E 004°58'7 6.7
2015-Jul-26 08:33N 43°23' E 004°49'1 0.6
2015-Jul-26 07:33N 43°23' E 004°48'0 0.0
2015-Jul-26 06:33N 43°23' E 004°48'0 0.0
2015-Jul-26 05:33N 43°23' E 004°48'0 0.0
2015-Jul-26 04:33N 43°23' E 004°48'0 0.0
2015-Jul-25 17:24N 43°23' E 004°48'0 0.0
2015-Jul-25 16:33N 43°23' E 004°48'0 0.0
2015-Jul-25 15:33N 43°23' E 004°48'0 0.0
2015-Jul-25 14:33N 43°23' E 004°48'0 0.0
2015-Jul-25 13:06N 43°23' E 004°48'2 3.9
2015-Jul-25 12:33N 43°24' E 004°46'  
Track history (hours):
 
Tides and Currents Weather Stations Pressure Air Temp Water Temp Dewpoint Dewpoint Depression Visibility Wind Speed Wind Dir Waves Ship Positions

Eurika

Last reported at 2015-Jul-29 09:33 UTC. Time now 2015-Jul-29 20:05 UTC.
Position N 40°56' E 009°32'.

Length 79 m.

MMSI: 277335000.

Date/timePositionNaut miles runAvg speedWind from/ knotsBaromVisibWave heightAir tempDewpointWater temp
2015-Jul-29 09:33N 40°56' E 009°32'0 0.0
2015-Jul-29 08:34N 40°56' E 009°32'  
2015-Jul-26 14:26N 42°55' E 005°39'7 8.0
2015-Jul-26 13:33N 42°59' E 005°31'9 8.1
2015-Jul-26 12:26N 43°04' E 005°20'7 8.2
2015-Jul-26 11:33N 43°08' E 005°12'8 8.0
2015-Jul-26 10:33N 43°14' E 005°05'8 8.1
2015-Jul-26 09:33N 43°20' E 004°58'7 6.7
2015-Jul-26 08:33N 43°23' E 004°49'1 0.6
2015-Jul-26 07:33N 43°23' E 004°48'0 0.0
2015-Jul-26 06:33N 43°23' E 004°48'0 0.0
2015-Jul-26 05:33N 43°23' E 004°48'0 0.0
2015-Jul-26 04:33N 43°23' E 004°48'0 0.0
2015-Jul-25 17:24N 43°23' E 004°48'0 0.0
2015-Jul-25 16:33N 43°23' E 004°48'0 0.0
2015-Jul-25 15:33N 43°23' E 004°48'0 0.0
2015-Jul-25 14:33N 43°23' E 004°48'0 0.0
2015-Jul-25 13:06N 43°23' E 004°48'2 3.9
2015-Jul-25 12:33N 43°24' E 004°46'  

Dump ship's entire track history